Asco, WV

2:39 AM EST on December 29, 2014 (GMT -0500)
Mercer County | Change Station
CLOSE
Current Station
Airport
Location: Bluefield,
Elevation: 2858 ft
Nearby Weather Stations

Elev 2858 ft 37.30 °N, 81.21 °W | Updated 8 minutes ago

Overcast
Overcast
42 °F
Feels Like 40 °F
N
4
Wind Variable Wind from WSW

Today
High -- | Low -- °F
--% Chance of Precip.
Yesterday
High -- | Low -- °F
Precip. -- in
7:40 AM 5:17 PM
First Quarter, 56% visible
Pressure 30.07 in
Visibility 0.8 miles
Clouds
Windchill 40 °F
Dew Point 39 °F
Humidity 89%
Rainfall 0.04 in
Snow Depth Not available.
UV Not available.
Pollen .10 out of 12
Air Quality Not available.
Flu Activity Not available.
SPECI KBLF 290731Z AUTO 25003KT 3/4SM BR VV003 06/04 A3007 RMK AO2 RAE0653 P0000 T00560039

More Conditions Fewer Conditions

Pressure 30.07 in
Visibility 0.8 miles
Clouds
Windchill 40 °F
Dew Point 39 °F
Humidity 89%
Rainfall 0.04 in
Snow Depth Not available.
UV Not available.
Pollen .10 out of 12
Air Quality Not available.
Flu Activity Not available.
SPECI KBLF 290731Z AUTO 25003KT 3/4SM BR VV003 06/04 A3007 RMK AO2 RAE0653 P0000 T00560039

More Conditions Fewer Conditions

10-Day Weather Forecast

Almanac

Astronomy

Dec. 29, 2014 Rise Set
Actual Time
Civil Twilight
Nautical Twilight
Astronomical Twilight
Moon
Length of Visible Light
Length of Day
Tomorrow will be .
, % of the Moon is Illuminated

Today's Extremes

State Highs State Lows

Community

WunderPhotos

Upload Photos

1,781,547 photos uploaded!

WunderBlogs® & News

Nearby

Air Quality

  Air Quality AQ Index Pollutant
Not available.

Snow Depth

Station Depth Elevation

Earthquake Activity

City Distance Mag. Time & Date
Minimum magnitude displayed is 2.5.

Coastal Water Temperatures

Place Temperature

Nearby Weather Stations